サンクトペテルブルク の空港の天気 - METARとTAF

プルコヴォ空港(サンクトペテルブルグ) ( ULLI / LED ) - ロシア サンクトペテルブルク
飛行場実況気象(Metar)
観測時間01/23 08:30 MSK (01/23 05:30 UTC)
風向・風速西 2m/s
視程10km以上
天気現象
なし
気温-13℃
湿度85%
気圧1018hPa
METARULLI 230530Z 28002MPS CAVOK M13/M15 Q1018 R88/420345 NOSIG
過去の天気等 Google飛行場航空写真 Wunderground天気予報

過去48時間のMETAR

飛行場予報(TAF)
発表時間: 1/23 07:59 MSK (1/23 04:59 UTC)
予報対象時間: 23日9時 MSK ~ 24日9時 MSK
風向・風速西 3m/s
視程6,000m
全天の8割程度の雲 雲底高度 340m
全天の8割程度の雲 雲底高度 610m
23日9時 MSK ~ 23日24時 MSK に一時的に
風向・風速北西 2m/s
視程3,100m
天気現象弱い雪
全天の8割程度の雲 雲底高度 240m
全天の8割程度の雲 雲底高度 460m
24日0時 MSK から
風向・風速南南東 3m/s 瞬間風速 8m/s
視程2,100m
天気現象もや
全天の8割程度の雲 雲底高度 120m
全天の8割程度の雲 雲底高度 460m
24日0時 MSK ~ 24日6時 MSK に一時的に
視程700m
天気現象弱い雪 氷霧
全天の8割程度の雲 雲底高度 90m
24日6時 MSK ~ 24日9時 MSK に一時的に
視程3,100m
天気現象もや
全天の8割程度の雲 雲底高度 340m
TAF ULLI 230459Z 2306/2406 28003MPS 6000 BKN011 BKN020
TEMPO 2306/2321 32002MPS 3100 -SN BKN008 BKN015
FM232100 16003G08MPS 2100 BR BKN004 BKN015
TEMPO 2321/2403 0700 -SN FZFG BKN003
TEMPO 2403/2406 3100 BR BKN011